Hauptseite
METAR-TAF:

METAR-TAF

Flughäfen :

Georgetown, Ascension

Flugfeld Wideawake

Breite: 07-58S, Länge: 014-24W, Höhe: 86 m

Beobachtung

Neuester Wetterbericht von vor 51 Minuten, um 13:50 UTC
Wind 17 kt aus Südost
Temperatur 27°C
Luftfeuchtigkeit 58%
Luftdruck 1016 hPa
Sichtweite 10 km oder mehr
Leicht bewölkt in der Höhe von 3000 ft
Leicht bewölkt in der Höhe von 8000 ft

METAR: FHAW 221350Z 14017KT 9999 FEW030 FEW080 27/18 Q1016 BLU

Zeit: 14:41 (14:41 UTC)

Prognose

Neuester Wetterbericht von vor 1 Stunde und 11 Minuten, um 13:30 UTC
Gültige Prognose vom 22 um 15 UTC bis 23 um 09 UTC
Wind 15 kt aus Südost
Sichtweite 10 km oder mehr
Aufgelockert bewölkt in der Höhe von 4000 ft
Wahrscheinlichkeit 30% :
Zeitweise
vom 22 um 15 UTC bis 22 um 18 UTC
Wind 16 kt aus Südost, Böen bis zu 26 kt

TAF: FHAW 221330Z 2215/2309 13015KT 9999 SCT040 PROB30 TEMPO 2215/2218 14016G26KT

Wetterbeobachtungen und Prognosen von mehr als 4000 Flughäfen (METAR und TAF Bericht).

Die verfügbaren Stationen werden durch gelbe und rote Markierungen auf der Karte dargestellt.

Führen Sie die Maus auf sie, um den Namen der Station zu sehen.

Darauf klicken, um die Beobachtung von Wetterbeobachtungen und Prognosen zu sehen.

Um die Karte zu ändern : klicken Sie auf den grünen Tasten mit einem schwarzen Kreuz Zum Vergrößern, auf den grünen Button mit einem Gedankenstrich zu verkleinern, oder auf die grünen Pfeile für benachbarte Karten.


METAR-TAF: